createdAt,value
2018-10-01T00:07:35.432Z,82.20
2018-10-01T00:10:04.163Z,82.20
2018-10-01T00:12:34.216Z,81.50
2018-10-01T00:18:07.940Z,81.50
2018-10-01T00:20:42.904Z,81.60
2018-10-01T00:23:23.185Z,83.20
2018-10-01T00:28:45.148Z,80.40
2018-10-01T00:31:13.746Z,81.10
2018-10-01T00:36:34.969Z,79.40
2018-10-01T00:39:04.711Z,79.20
2018-10-01T00:41:33.472Z,82.70
2018-10-01T00:44:02.000Z,79.30
2018-10-01T00:46:30.559Z,80.10
2018-10-01T00:51:53.747Z,83.30
2018-10-01T00:57:16.008Z,80.90
2018-10-01T01:05:30.436Z,82.40
2018-10-01T01:07:59.003Z,80.70
2018-10-01T01:19:20.295Z,80.30
2018-10-01T01:21:49.420Z,79.40
2018-10-01T01:24:18.174Z,80.20
2018-10-01T01:26:46.588Z,79.50
2018-10-01T01:29:16.120Z,79.00
2018-10-01T01:31:44.665Z,78.70
2018-10-01T01:34:13.255Z,77.80
2018-10-01T01:36:43.081Z,78.50
2018-10-01T01:39:11.893Z,78.20
2018-10-01T01:41:40.500Z,78.20
2018-10-01T01:44:28.490Z,79.60
2018-10-01T01:46:57.659Z,78.60
2018-10-01T01:49:27.184Z,78.90
2018-10-01T02:06:23.185Z,78.00
2018-10-01T02:14:38.701Z,78.50
2018-10-01T02:17:07.610Z,77.00
2018-10-01T02:19:36.071Z,77.20
2018-10-01T02:22:11.312Z,77.80
2018-10-01T02:27:32.744Z,79.00
2018-10-01T02:30:01.680Z,78.10
2018-10-01T02:32:31.041Z,77.90
2018-10-01T02:35:02.760Z,77.90
2018-10-01T02:43:18.489Z,76.70
2018-10-01T02:45:47.199Z,78.40
2018-10-01T02:51:09.372Z,78.40
2018-10-01T02:53:58.347Z,79.40
2018-10-01T02:59:21.386Z,79.40
2018-10-01T03:05:02.470Z,81.10
2018-10-01T03:10:24.324Z,79.70
2018-10-01T03:12:53.136Z,80.20
2018-10-01T03:15:21.857Z,80.10
2018-10-01T03:17:50.445Z,80.50
2018-10-01T03:20:18.976Z,79.90
2018-10-01T03:22:47.424Z,82.10
2018-10-01T03:25:15.944Z,79.30
2018-10-01T03:27:44.799Z,81.10
2018-10-01T03:30:13.341Z,81.60
2018-10-01T03:32:41.970Z,80.00
2018-10-01T03:35:10.509Z,82.60
2018-10-01T03:37:39.037Z,83.40
2018-10-01T03:43:04.417Z,80.40
2018-10-01T03:45:33.041Z,83.00
2018-10-01T03:48:01.600Z,90.70
2018-10-01T03:50:30.231Z,91.00
2018-10-01T03:52:58.848Z,91.90
2018-10-01T03:55:27.461Z,91.60
2018-10-01T03:58:15.585Z,92.20
2018-10-01T04:00:44.732Z,92.70
2018-10-01T04:06:06.968Z,92.20
2018-10-01T04:14:22.861Z,92.10
2018-10-01T04:16:52.568Z,92.30
2018-10-01T04:19:21.221Z,92.70
2018-10-01T04:21:50.090Z,92.20
2018-10-01T04:24:18.874Z,92.30
2018-10-01T04:26:47.404Z,92.30
2018-10-01T04:29:15.922Z,91.70
2018-10-01T04:34:55.164Z,91.80
2018-10-01T04:37:23.464Z,91.50
2018-10-01T04:39:55.091Z,91.40
2018-10-01T04:42:23.801Z,91.20
2018-10-01T04:47:46.032Z,91.10
2018-10-01T04:50:14.540Z,91.10
2018-10-01T04:52:43.177Z,91.20
2018-10-01T04:55:11.991Z,91.50
2018-10-01T04:57:40.340Z,91.20
2018-10-01T05:03:03.876Z,92.70
2018-10-01T05:08:26.720Z,92.30
2018-10-01T05:10:55.445Z,92.20
2018-10-01T05:13:24.101Z,92.20
2018-10-01T05:15:52.920Z,91.70
2018-10-01T05:18:21.352Z,91.80
2018-10-01T05:20:50.130Z,91.60
2018-10-01T05:23:18.862Z,92.50
2018-10-01T05:25:52.904Z,92.10
2018-10-01T05:31:14.693Z,91.70
2018-10-01T05:33:44.337Z,92.40
2018-10-01T05:36:14.125Z,92.30
2018-10-01T05:38:43.724Z,92.60
2018-10-01T05:41:12.381Z,92.40
2018-10-01T05:43:40.904Z,91.90
2018-10-01T05:46:09.788Z,92.30
2018-10-01T05:48:38.003Z,92.10
2018-10-01T05:51:18.795Z,92.40
2018-10-01T05:56:40.013Z,91.70
2018-10-01T05:59:08.861Z,92.10
2018-10-01T06:01:37.172Z,91.80
2018-10-01T06:04:07.091Z,92.00
2018-10-01T06:09:28.764Z,91.30
2018-10-01T06:11:57.481Z,91.40
2018-10-01T06:17:20.532Z,90.90
2018-10-01T06:19:52.272Z,91.00
2018-10-01T06:22:20.993Z,90.70
2018-10-01T06:27:43.298Z,90.70
2018-10-01T06:30:13.054Z,90.70
2018-10-01T06:32:41.393Z,90.80
2018-10-01T06:38:03.792Z,90.60
2018-10-01T06:40:53.247Z,90.30
2018-10-01T06:43:21.811Z,90.30
2018-10-01T06:48:43.879Z,89.60
2018-10-01T06:51:12.405Z,89.60
2018-10-01T06:53:41.144Z,90.30
2018-10-01T06:56:09.897Z,90.10
2018-10-01T06:58:38.811Z,89.50
2018-10-01T07:01:07.233Z,89.90
2018-10-01T07:06:33.617Z,88.50
2018-10-01T07:09:09.186Z,89.00
2018-10-01T07:11:44.110Z,88.30
2018-10-01T07:14:13.056Z,88.80
2018-10-01T07:16:54.753Z,87.50
2018-10-01T07:22:30.919Z,86.60
2018-10-01T07:25:00.015Z,86.90
2018-10-01T07:27:36.141Z,85.60
2018-10-01T07:32:59.717Z,84.90
2018-10-01T07:35:28.342Z,82.90
2018-10-01T07:43:45.033Z,84.90
2018-10-01T07:46:25.374Z,90.30
2018-10-01T07:48:53.854Z,91.30
2018-10-01T07:51:22.490Z,91.50
2018-10-01T07:53:54.228Z,91.90
2018-10-01T07:56:22.789Z,92.00
2018-10-01T07:58:51.733Z,92.60
2018-10-01T08:04:13.377Z,91.70
2018-10-01T08:06:42.011Z,91.40
2018-10-01T08:09:11.428Z,91.40
2018-10-01T08:11:40.367Z,91.70
2018-10-01T08:14:08.996Z,90.80
2018-10-01T08:16:37.662Z,91.10
2018-10-01T08:19:06.036Z,90.40
2018-10-01T08:21:35.664Z,91.00
2018-10-01T08:24:04.204Z,90.80
2018-10-01T08:31:23.440Z,89.80
2018-10-01T08:34:07.101Z,90.30
2018-10-01T08:36:35.749Z,89.40
2018-10-01T08:39:08.906Z,89.90
2018-10-01T08:41:38.493Z,90.40
2018-10-01T08:44:13.191Z,90.20
2018-10-01T08:46:42.139Z,90.10
2018-10-01T08:49:29.180Z,89.60
2018-10-01T08:54:51.452Z,86.90
2018-10-01T09:03:12.409Z,81.90
2018-10-01T09:05:41.564Z,78.70
2018-10-01T09:08:10.093Z,80.90
2018-10-01T09:13:32.406Z,73.10
2018-10-01T09:18:54.432Z,71.80
2018-10-01T09:21:22.905Z,71.10
2018-10-01T09:23:51.616Z,74.00
2018-10-01T09:26:20.394Z,68.40
2018-10-01T09:28:49.240Z,71.70
2018-10-01T09:31:17.678Z,71.40
2018-10-01T09:36:40.275Z,67.60
2018-10-01T09:42:01.991Z,69.30
2018-10-01T09:45:59.820Z,68.90
2018-10-01T09:54:15.968Z,67.70
2018-10-01T09:56:45.320Z,66.80
2018-10-01T09:59:14.176Z,68.00
2018-10-01T10:04:36.307Z,68.90
2018-10-01T10:07:04.776Z,66.90
2018-10-01T10:12:33.666Z,64.10
2018-10-01T10:15:02.629Z,67.70
2018-10-01T10:17:31.457Z,69.70
2018-10-01T10:20:00.303Z,69.70
2018-10-01T10:22:28.651Z,69.20
2018-10-01T10:24:57.490Z,66.90
2018-10-01T10:27:26.226Z,64.80
2018-10-01T10:29:55.139Z,66.40
2018-10-01T10:32:43.909Z,64.50
2018-10-01T10:35:30.641Z,65.70
2018-10-01T10:37:59.714Z,66.60
2018-10-01T10:40:28.345Z,62.10
2018-10-01T10:42:57.095Z,63.80
2018-10-01T10:45:25.476Z,60.00
2018-10-01T10:50:47.445Z,61.80
2018-10-01T10:53:16.074Z,61.40
2018-10-01T10:55:44.860Z,69.80
2018-10-01T10:58:13.430Z,70.50
2018-10-01T11:00:42.326Z,72.20
2018-10-01T11:03:10.601Z,71.20
2018-10-01T11:05:39.153Z,71.70
2018-10-01T11:08:10.750Z,70.20
2018-10-01T11:13:35.832Z,68.80
2018-10-01T11:24:57.473Z,66.60
2018-10-01T11:27:25.638Z,69.80
2018-10-01T11:29:54.562Z,69.10
2018-10-01T11:32:23.238Z,69.30
2018-10-01T11:34:53.178Z,69.20
2018-10-01T11:40:15.170Z,69.50
2018-10-01T11:42:43.771Z,69.80
2018-10-01T11:45:12.466Z,68.20
2018-10-01T11:47:41.129Z,66.90
2018-10-01T11:53:04.514Z,64.60
2018-10-01T11:55:32.720Z,62.50
2018-10-01T11:58:01.300Z,63.20
2018-10-01T12:03:23.643Z,69.60
2018-10-01T12:05:59.644Z,71.40
2018-10-01T12:08:28.692Z,72.60
2018-10-01T12:10:57.569Z,74.10
2018-10-01T12:13:26.089Z,74.20
2018-10-01T12:16:04.411Z,74.20
2018-10-01T12:21:28.535Z,72.40
2018-10-01T12:23:57.809Z,69.10
2018-10-01T12:26:31.743Z,66.50
2018-10-01T12:31:54.189Z,64.10
2018-10-01T12:34:22.721Z,61.60
2018-10-01T12:36:51.391Z,62.10
2018-10-01T12:42:14.531Z,61.80
2018-10-01T12:44:43.040Z,66.60
2018-10-01T12:50:05.240Z,66.90
2018-10-01T12:52:43.772Z,68.60
2018-10-01T12:58:06.276Z,67.90
2018-10-01T13:00:35.928Z,67.40
2018-10-01T13:03:04.557Z,65.80
2018-10-01T13:05:33.120Z,66.10
2018-10-01T13:08:02.762Z,66.90
2018-10-01T13:10:38.885Z,64.20
2018-10-01T13:13:20.475Z,64.80
2018-10-01T13:18:42.552Z,62.70
2018-10-01T13:21:10.857Z,64.00
2018-10-01T13:23:39.589Z,61.00
2018-10-01T13:26:08.356Z,63.10
2018-10-01T13:28:36.693Z,63.90
2018-10-01T13:34:05.329Z,64.80
2018-10-01T13:39:28.776Z,66.00
2018-10-01T13:44:54.140Z,67.40
2018-10-01T13:47:22.673Z,68.40
2018-10-01T13:49:51.220Z,69.00
2018-10-01T13:52:21.294Z,67.70
2018-10-01T13:54:55.921Z,68.00
2018-10-01T13:57:25.083Z,66.00
2018-10-01T14:02:47.385Z,67.90
2018-10-01T14:05:30.357Z,65.50
2018-10-01T14:08:04.905Z,65.00
2018-10-01T14:10:34.124Z,64.30
2018-10-01T14:16:00.899Z,60.00
2018-10-01T14:18:30.303Z,60.50
2018-10-01T14:24:04.101Z,75.50
2018-10-01T14:26:32.810Z,71.40
2018-10-01T14:29:01.513Z,73.70
2018-10-01T14:31:50.396Z,69.10
2018-10-01T14:34:19.525Z,67.00
2018-10-01T14:36:48.350Z,67.90
2018-10-01T14:39:18.278Z,66.70
2018-10-01T14:41:46.705Z,64.90
2018-10-01T14:44:15.284Z,64.10
2018-10-01T14:46:44.173Z,64.30
2018-10-01T14:49:12.709Z,63.00
2018-10-01T14:51:41.125Z,62.30
2018-10-01T14:54:09.910Z,63.00
2018-10-01T14:56:38.515Z,63.40
2018-10-01T14:59:07.073Z,63.20
2018-10-01T15:01:35.701Z,62.00
2018-10-01T15:04:04.465Z,62.90
2018-10-01T15:06:33.226Z,63.50
2018-10-01T15:09:12.582Z,60.50
2018-10-01T15:11:41.477Z,61.80
2018-10-01T15:14:10.084Z,60.10
2018-10-01T15:16:38.720Z,61.40
2018-10-01T15:19:07.469Z,61.00
2018-10-01T15:24:30.795Z,60.10
2018-10-01T15:29:54.167Z,61.00
2018-10-01T15:32:25.329Z,60.90
2018-10-01T15:37:47.709Z,63.10
2018-10-01T15:40:16.782Z,62.50
2018-10-01T15:42:45.078Z,64.10
2018-10-01T15:45:13.757Z,65.70
2018-10-01T15:47:42.390Z,65.60
2018-10-01T15:53:05.695Z,66.30
2018-10-01T16:04:14.597Z,71.60
2018-10-01T16:09:37.133Z,69.70
2018-10-01T16:12:06.185Z,69.70
2018-10-01T16:14:35.332Z,69.30
2018-10-01T16:17:04.303Z,69.40
2018-10-01T16:19:33.504Z,69.30
2018-10-01T16:22:02.276Z,69.60
2018-10-01T16:24:31.100Z,69.30
2018-10-01T16:26:59.575Z,69.40
2018-10-01T16:29:28.377Z,69.30
2018-10-01T16:31:56.716Z,69.60
2018-10-01T16:35:16.098Z,69.50
2018-10-01T16:37:44.714Z,69.90
2018-10-01T16:40:35.740Z,70.90
2018-10-01T16:43:11.530Z,72.30
2018-10-01T16:45:40.692Z,72.60
2018-10-01T16:48:09.241Z,73.30
2018-10-01T16:50:37.904Z,72.20
2018-10-01T16:53:06.325Z,72.10
2018-10-01T16:55:34.797Z,71.70
2018-10-01T17:00:56.766Z,72.00
2018-10-01T17:03:25.418Z,72.10
2018-10-01T17:05:58.162Z,71.90
2018-10-01T17:08:38.909Z,72.00
2018-10-01T17:11:07.586Z,72.00
2018-10-01T17:13:36.324Z,72.00
2018-10-01T17:16:04.655Z,72.20
2018-10-01T17:20:02.696Z,71.80
2018-10-01T17:25:24.388Z,72.20
2018-10-01T17:27:56.095Z,73.00
2018-10-01T17:30:24.681Z,73.60
2018-10-01T17:32:53.227Z,75.20
2018-10-01T17:35:21.774Z,79.80
2018-10-01T17:37:50.521Z,81.70
2018-10-01T17:40:23.554Z,84.00
2018-10-01T17:45:45.491Z,84.40
2018-10-01T17:48:14.001Z,83.00
2018-10-01T17:50:42.727Z,82.10
2018-10-01T17:53:12.564Z,81.60
2018-10-01T17:55:40.897Z,81.30
2018-10-01T17:58:09.537Z,82.00
2018-10-01T18:03:44.898Z,82.00
2018-10-01T18:06:25.362Z,82.30
2018-10-01T18:08:57.345Z,81.00
2018-10-01T18:11:25.592Z,80.90
2018-10-01T18:13:56.561Z,82.50
2018-10-01T18:16:31.276Z,81.50
2018-10-01T18:19:05.810Z,83.00
2018-10-01T18:21:34.837Z,83.60
2018-10-01T18:24:03.720Z,82.80
2018-10-01T18:26:46.607Z,84.60
2018-10-01T18:29:15.973Z,84.50
2018-10-01T18:37:32.710Z,83.40
2018-10-01T18:40:01.310Z,83.50
2018-10-01T18:42:42.005Z,82.10
2018-10-01T18:50:36.104Z,82.60
2018-10-01T18:53:13.800Z,83.40
2018-10-01T18:55:42.936Z,82.30
2018-10-01T18:58:11.757Z,82.30
2018-10-01T19:00:40.484Z,81.60
2018-10-01T19:03:09.452Z,80.80
2018-10-01T19:05:45.494Z,83.20
2018-10-01T19:16:53.866Z,82.10
2018-10-01T19:19:22.968Z,81.60
2018-10-01T19:24:26.577Z,82.00
2018-10-01T19:26:55.372Z,81.20
2018-10-01T19:32:18.535Z,81.00
2018-10-01T19:34:47.407Z,82.80
2018-10-01T19:40:09.685Z,81.00
2018-10-01T19:42:50.348Z,81.00
2018-10-01T19:48:12.596Z,80.70
2018-10-01T19:50:42.218Z,80.20
2018-10-01T19:53:10.961Z,80.90
2018-10-01T19:55:41.862Z,80.70
2018-10-01T20:01:03.721Z,80.10
2018-10-01T20:03:42.133Z,80.20
2018-10-01T20:09:03.075Z,80.00
2018-10-01T20:11:31.617Z,80.30
2018-10-01T20:14:00.229Z,81.60
2018-10-01T20:16:28.965Z,83.00
2018-10-01T20:18:57.456Z,81.40
2018-10-01T20:21:26.085Z,81.20
2018-10-01T20:26:51.236Z,80.70
2018-10-01T20:29:20.852Z,81.20
2018-10-01T20:31:49.768Z,81.00
2018-10-01T20:34:20.863Z,82.50
2018-10-01T20:45:14.429Z,83.40
2018-10-01T20:47:43.081Z,82.30
2018-10-01T20:50:27.096Z,84.40
2018-10-01T20:53:13.585Z,83.00
2018-10-01T20:55:53.848Z,83.00
2018-10-01T20:58:22.665Z,82.30
2018-10-01T21:01:13.553Z,83.10
2018-10-01T21:03:53.967Z,82.00
2018-10-01T21:06:29.444Z,82.10
2018-10-01T21:11:51.796Z,82.50
2018-10-01T21:14:34.881Z,82.60
2018-10-01T21:17:04.016Z,83.70
2018-10-01T21:19:32.661Z,82.10
2018-10-01T21:22:01.497Z,83.80
2018-10-01T21:24:30.440Z,83.00
2018-10-01T21:26:59.065Z,84.20
2018-10-01T21:29:28.828Z,83.40
2018-10-01T21:31:57.654Z,83.60
2018-10-01T21:34:26.370Z,82.30
2018-10-01T21:36:55.488Z,84.80
2018-10-01T21:40:04.796Z,83.40
2018-10-01T21:42:33.443Z,85.20
2018-10-01T21:45:02.813Z,83.60
2018-10-01T21:47:31.925Z,83.10
2018-10-01T21:50:01.177Z,82.90
2018-10-01T21:52:36.563Z,81.90
2018-10-01T21:57:58.932Z,81.70
2018-10-01T22:00:31.856Z,81.10
2018-10-01T22:03:06.069Z,80.50
2018-10-01T22:05:46.936Z,81.50
2018-10-01T22:08:16.564Z,81.40
2018-10-01T22:10:45.386Z,81.50
2018-10-01T22:13:21.051Z,81.50
2018-10-01T22:21:36.560Z,80.40
2018-10-01T22:24:05.421Z,80.20
2018-10-01T22:26:34.212Z,80.30
2018-10-01T22:29:03.046Z,80.00
2018-10-01T22:31:31.553Z,80.30
2018-10-01T22:34:00.264Z,80.20
2018-10-01T22:36:35.387Z,80.00
2018-10-01T22:39:04.794Z,81.80
2018-10-01T22:41:33.282Z,82.20
2018-10-01T22:44:01.900Z,81.60
2018-10-01T22:46:30.653Z,81.30
2018-10-01T22:48:59.109Z,81.10
2018-10-01T22:51:27.849Z,81.00
2018-10-01T22:53:56.655Z,80.30
2018-10-01T23:02:12.229Z,82.40
2018-10-01T23:04:40.780Z,81.20
2018-10-01T23:07:14.900Z,80.80
2018-10-01T23:09:44.036Z,80.90
2018-10-01T23:12:12.989Z,81.30
2018-10-01T23:15:03.484Z,81.60
2018-10-01T23:20:25.322Z,80.80
2018-10-01T23:23:16.532Z,81.20
2018-10-01T23:25:46.098Z,83.20
2018-10-01T23:28:20.876Z,81.10
2018-10-01T23:31:03.064Z,81.00
2018-10-01T23:36:25.031Z,80.20
2018-10-01T23:38:53.773Z,80.50
2018-10-01T23:44:16.024Z,80.30
2018-10-01T23:46:45.187Z,79.60
2018-10-01T23:49:14.348Z,80.00
2018-10-01T23:51:43.055Z,79.60
2018-10-01T23:54:28.155Z,79.60
2018-10-01T23:56:56.704Z,79.60
